Time;durP1;ratioP1;P1;durP2;ratioP2;P2;SDS_P1;SDS_P2;PMS_P1;PMS_P2;Temp;Humidity;BMP_temperature;BMP_pressure;BME280_temperature;BME280_humidity;BME280_pressure;Samples;Min_cycle;Max_cycle;Signal;HPM_P1;HPM_P2
2022/12/19 00:01:15;;;;;;;7.92;5.87;;;;;;;-3.29;69.99;102249.98;1699173;83;21797;-75
2022/12/19 00:03:44;;;;;;;8.68;6.58;;;;;;;-3.30;70.04;102247.83;1699488;83;20940;-76
2022/12/19 00:06:12;;;;;;;6.83;5.47;;;;;;;-3.30;70.10;102253.00;1678849;84;20965;-75
2022/12/19 00:08:41;;;;;;;7.35;5.53;;;;;;;-3.31;70.04;102251.27;1699163;83;21000;-74
2022/12/19 00:11:10;;;;;;;7.60;5.72;;;;;;;-3.33;70.00;102254.28;1689547;83;21149;-76
2022/12/19 00:13:37;;;;;;;8.15;6.15;;;;;;;-3.34;69.97;102260.73;1663993;84;21886;-75
2022/12/19 00:16:05;;;;;;;9.00;6.53;;;;;;;-3.34;70.05;102264.61;1689849;83;21055;-75
2022/12/19 00:18:33;;;;;;;8.38;5.95;;;;;;;-3.32;70.03;102275.81;1699512;83;21046;-75
2022/12/19 00:21:03;;;;;;;9.78;7.00;;;;;;;-3.34;70.02;102278.39;1679015;84;21071;-75
2022/12/19 00:23:32;;;;;;;9.00;6.83;;;;;;;-3.34;70.03;102286.57;1699512;83;21477;-75
2022/12/19 00:26:20;;;;;;;10.93;6.90;;;;;;;-3.35;70.09;102288.29;1699270;83;21826;-75
2022/12/19 00:28:51;;;;;;;10.53;7.45;;;;;;;-3.37;70.09;102283.97;1696936;83;21012;-76
2022/12/19 00:31:17;;;;;;;10.53;8.13;;;;;;;-3.36;70.18;102285.70;1683032;83;21011;-75
2022/12/19 00:33:46;;;;;;;8.98;7.05;;;;;;;-3.33;70.24;102276.24;1699112;84;21002;-75
2022/12/19 00:36:20;;;;;;;10.38;7.30;;;;;;;-3.30;70.27;102284.44;1699121;83;21057;-76
2022/12/19 00:38:48;;;;;;;11.90;8.08;;;;;;;-3.27;70.32;102289.22;1697538;83;21775;-76
2022/12/19 00:41:27;;;;;;;11.93;8.48;;;;;;;-3.27;70.22;102285.78;1699292;83;20986;-76
2022/12/19 00:43:57;;;;;;;11.48;8.28;;;;;;;-3.31;70.22;102288.73;1699525;83;21523;-76
2022/12/19 00:46:24;;;;;;;11.45;7.92;;;;;;;-3.36;70.10;102287.85;1699024;83;21121;-76
2022/12/19 00:48:50;;;;;;;10.93;8.05;;;;;;;-3.36;70.15;102295.61;1690575;84;20994;-76
2022/12/19 00:51:21;;;;;;;11.10;7.78;;;;;;;-3.37;70.12;102292.59;1679155;84;21903;-76
2022/12/19 00:53:48;;;;;;;10.50;7.70;;;;;;;-3.39;69.97;102291.68;1699510;84;20933;-76
2022/12/19 00:56:17;;;;;;;11.05;7.78;;;;;;;-3.44;69.91;102290.80;1699145;84;21455;-76
2022/12/19 00:58:44;;;;;;;11.03;6.78;;;;;;;-3.47;69.89;102288.19;1699287;83;21072;-76
2022/12/19 01:01:17;;;;;;;11.30;8.40;;;;;;;-3.49;69.85;102294.61;1699511;83;21000;-76
2022/12/19 01:03:45;;;;;;;11.60;9.03;;;;;;;-3.49;69.85;102298.91;1661239;84;22480;-75
2022/12/19 01:06:12;;;;;;;11.45;7.72;;;;;;;-3.49;69.88;102297.63;1681586;83;20994;-76
2022/12/19 01:08:38;;;;;;;12.78;8.65;;;;;;;-3.51;69.91;102301.48;1699179;84;20966;-75
2022/12/19 01:11:05;;;;;;;11.75;8.03;;;;;;;-3.54;69.86;102296.73;1698970;84;21014;-76
2022/12/19 01:13:35;;;;;;;10.70;7.87;;;;;;;-3.57;69.91;102295.39;1699274;83;20955;-76
2022/12/19 01:16:08;;;;;;;11.73;8.43;;;;;;;-3.57;69.90;102306.61;1698950;83;21776;-76
2022/12/19 01:18:34;;;;;;;13.70;7.85;;;;;;;-3.60;69.90;102305.27;1699564;84;21057;-76
2022/12/19 01:21:03;;;;;;;10.10;7.00;;;;;;;-3.61;69.89;102305.27;1698942;83;21000;-75
2022/12/19 01:23:30;;;;;;;10.60;7.20;;;;;;;-3.63;69.95;102306.55;1673724;84;20960;-76
2022/12/19 01:25:57;;;;;;;14.07;7.97;;;;;;;-3.62;69.94;102299.66;1685091;84;21008;-75
2022/12/19 01:28:24;;;;;;;10.60;7.92;;;;;;;-3.64;69.90;102305.24;1699176;83;21831;-76
2022/12/19 01:30:56;;;;;;;10.25;7.50;;;;;;;-3.67;69.87;102303.47;1698881;83;20966;-76
2022/12/19 01:33:22;;;;;;;9.90;7.50;;;;;;;-3.72;69.85;102305.16;1699328;83;20958;-74
2022/12/19 01:35:48;;;;;;;11.12;7.55;;;;;;;-3.74;69.85;102302.99;1714625;82;20969;-76
2022/12/19 01:38:17;;;;;;;12.80;8.43;;;;;;;-3.79;69.72;102305.51;1725940;81;21051;-76
2022/12/19 01:40:53;;;;;;;10.15;7.47;;;;;;;-3.83;69.73;102308.06;1726094;81;21911;-76
2022/12/19 01:43:20;;;;;;;10.72;7.55;;;;;;;-3.88;69.79;102295.51;1725387;81;21110;-76
2022/12/19 01:46:04;;;;;;;10.70;7.60;;;;;;;-3.92;69.90;102307.53;1726874;83;21437;-75
2022/12/19 01:48:35;;;;;;;12.00;8.65;;;;;;;-3.90;69.99;102311.41;1719544;82;20971;-74
2022/12/19 01:51:15;;;;;;;13.80;9.60;;;;;;;-3.89;70.08;102300.23;1716611;82;21454;-74
2022/12/19 01:53:53;;;;;;;11.20;8.03;;;;;;;-3.85;70.08;102302.02;1673009;83;21851;-74
2022/12/19 01:56:31;;;;;;;12.53;8.73;;;;;;;-3.90;70.01;102302.38;1703854;83;21008;-75
2022/12/19 01:59:00;;;;;;;13.40;10.00;;;;;;;-3.92;70.12;102310.54;1688120;85;21042;-74
2022/12/19 02:01:26;;;;;;;14.93;9.93;;;;;;;-3.89;70.25;102315.72;1701717;82;20990;-74
2022/12/19 02:03:53;;;;;;;12.18;8.83;;;;;;;-3.87;70.29;102319.18;1726426;81;21112;-75
2022/12/19 02:06:20;;;;;;;10.70;7.80;;;;;;;-3.88;70.31;102312.29;1716091;82;21889;-74
2022/12/19 02:08:47;;;;;;;11.22;8.08;;;;;;;-3.93;70.16;102316.12;1726441;81;21028;-74
2022/12/19 02:11:14;;;;;;;10.58;7.05;;;;;;;-4.03;70.15;102325.91;1712295;82;21441;-74
2022/12/19 02:13:42;;;;;;;10.95;7.12;;;;;;;-4.06;70.33;102320.69;1699005;82;20966;-74
2022/12/19 02:16:41;;;;;;;10.48;7.20;;;;;;;-4.04;70.35;102325.04;1693705;83;21009;-76
2022/12/19 02:19:44;;;;;;;9.80;7.17;;;;;;;-4.02;70.40;102325.48;1726275;81;21852;-74
2022/12/19 02:22:40;;;;;;;10.15;7.15;;;;;;;-4.04;70.45;102324.17;1726471;81;20985;-74
2022/12/19 02:25:40;;;;;;;10.15;7.22;;;;;;;-4.02;70.50;102325.05;1721841;81;21031;-75
2022/12/19 02:28:13;;;;;;;10.13;7.50;;;;;;;-4.01;70.51;102326.78;1726390;81;20917;-74
2022/12/19 02:31:16;;;;;;;9.85;6.85;;;;;;;-4.00;70.43;102333.67;1709474;81;21418;-75
2022/12/19 02:33:46;;;;;;;;;;;;;;;-4.03;70.34;102340.10;1700601;84;21920;-74
2022/12/19 02:36:38;;;;;;;10.30;6.42;;;;;;;-4.08;70.31;102330.99;1688139;83;20142;-75
2022/12/19 02:39:12;;;;;;;9.73;5.95;;;;;;;-4.13;70.20;102324.93;1651738;85;21025;-75
2022/12/19 02:41:57;;;;;;;12.60;7.25;;;;;;;-4.21;70.08;102336.00;1714359;82;20963;-75
2022/12/19 02:44:46;;;;;;;9.98;6.62;;;;;;;-4.28;70.13;102341.92;1704955;83;21033;-75
2022/12/19 02:47:14;;;;;;;9.30;6.53;;;;;;;-4.33;70.14;102356.06;1692319;82;21819;-74
2022/12/19 02:49:41;;;;;;;10.45;7.03;;;;;;;-4.34;70.23;102359.49;1679556;84;20941;-74
2022/12/19 02:52:21;;;;;;;10.58;6.72;;;;;;;-4.35;70.23;102365.47;1715979;82;21428;-75
2022/12/19 02:54:52;;;;;;;11.38;7.30;;;;;;;-4.36;70.29;102366.31;1710703;83;21254;-75
2022/12/19 02:57:40;;;;;;;10.30;6.97;;;;;;;-4.34;70.38;102372.39;1699681;83;20959;-75
2022/12/19 03:00:22;;;;;;;9.13;6.95;;;;;;;-4.29;70.43;102378.88;1714787;82;22563;-75
2022/12/19 03:03:18;;;;;;;11.10;7.20;;;;;;;-4.27;70.48;102381.05;1714135;82;21001;-75
2022/12/19 03:05:59;;;;;;;9.80;7.47;;;;;;;-4.29;70.38;102389.20;1687957;84;21006;-74
2022/12/19 03:08:51;;;;;;;11.20;7.42;;;;;;;-4.35;70.37;102388.26;1698967;83;21619;-74
2022/12/19 03:11:17;;;;;;;11.33;7.87;;;;;;;-4.35;70.43;102394.70;1709903;83;21499;-74
2022/12/19 03:13:54;;;;;;;12.30;8.48;;;;;;;-4.41;70.41;102394.64;1696942;82;21738;-75
2022/12/19 03:16:21;;;;;;;11.90;8.30;;;;;;;-4.39;70.53;102399.81;1706015;82;21424;-74
2022/12/19 03:18:47;;;;;;;10.00;7.40;;;;;;;-4.37;70.55;102401.56;1714206;83;21630;-74
2022/12/19 03:21:36;;;;;;;13.15;9.00;;;;;;;-4.36;70.46;102409.75;1698383;83;21480;-75
2022/12/19 03:24:03;;;;;;;11.97;8.10;;;;;;;-4.39;70.36;102411.00;1714509;83;20969;-75
2022/12/19 03:26:58;;;;;;;11.75;8.75;;;;;;;-4.39;70.33;102417.45;1708695;83;21927;-75
2022/12/19 03:29:31;;;;;;;13.30;8.25;;;;;;;-4.40;70.21;102421.30;1669979;84;21005;-75
2022/12/19 03:32:00;;;;;;;11.55;8.43;;;;;;;-4.45;69.91;102425.51;1714558;82;20993;-74
2022/12/19 03:34:35;;;;;;;12.53;8.60;;;;;;;-4.54;69.76;102431.81;1688396;83;21010;-75
2022/12/19 03:37:03;;;;;;;13.10;8.73;;;;;;;-4.61;69.55;102436.89;1691537;83;20996;-74
2022/12/19 03:39:30;;;;;;;13.58;8.90;;;;;;;-4.68;69.25;102440.63;1672175;83;21751;-75
2022/12/19 03:44:43;;;;;;;11.78;8.15;;;;;;;-4.85;69.08;102449.36;1704592;83;20954;-75
2022/12/19 03:47:24;;;;;;;13.90;8.70;;;;;;;-4.95;68.99;102444.47;1710827;82;20965;-75
2022/12/19 03:49:50;;;;;;;13.98;8.53;;;;;;;-5.00;69.10;102445.25;1689313;83;21403;-74
2022/12/19 03:52:41;;;;;;;13.80;8.48;;;;;;;-5.02;69.14;102451.67;1657438;85;21988;-75
2022/12/19 03:55:18;;;;;;;13.15;8.48;;;;;;;-5.03;69.12;102452.91;1666921;85;20931;-74
2022/12/19 03:57:55;;;;;;;12.43;8.00;;;;;;;-5.05;69.01;102464.48;1712094;83;21487;-74
2022/12/19 04:00:24;;;;;;;10.70;6.97;;;;;;;-5.11;68.99;102466.09;1678465;84;21018;-75
2022/12/19 04:02:52;;;;;;;12.70;7.62;;;;;;;-5.16;68.82;102472.44;1705827;83;20971;-74
2022/12/19 04:05:21;;;;;;;12.30;8.10;;;;;;;-5.25;68.70;102486.42;1644292;85;22543;-74
2022/12/19 04:07:48;;;;;;;13.85;8.15;;;;;;;-5.29;68.76;102488.09;1645585;86;21017;-74
2022/12/19 04:10:19;;;;;;;12.30;7.67;;;;;;;-5.29;68.83;102494.95;1709271;83;20993;-74
2022/12/19 04:12:57;;;;;;;12.68;8.10;;;;;;;-5.29;68.86;102490.66;1704860;82;21017;-74
2022/12/19 04:15:38;;;;;;;11.75;7.92;;;;;;;-5.29;68.89;102498.39;1716293;83;21595;-74
2022/12/19 04:18:04;;;;;;;12.40;7.97;;;;;;;-5.27;68.96;102504.86;1724282;81;21807;-74
2022/12/19 04:20:31;;;;;;;13.05;8.48;;;;;;;-5.33;68.72;102504.30;1715942;83;20954;-74
2022/12/19 04:23:26;;;;;;;12.18;8.20;;;;;;;-5.38;68.86;102509.80;1726302;81;21063;-73
2022/12/19 04:25:57;;;;;;;10.90;7.37;;;;;;;-5.35;69.05;102514.13;1715397;81;20960;-74
2022/12/19 04:28:38;;;;;;;11.50;7.65;;;;;;;-5.31;69.11;102514.63;1725157;81;21054;-74
2022/12/19 04:31:04;;;;;;;12.47;8.30;;;;;;;-5.33;69.05;102524.91;1695858;81;21936;-74
2022/12/19 04:33:31;;;;;;;9.25;6.58;;;;;;;-5.31;69.14;102527.09;1726578;82;20988;-75
2022/12/19 04:35:57;;;;;;;11.05;7.00;;;;;;;-5.28;69.24;102525.88;1722732;81;21016;-75
2022/12/19 04:38:23;;;;;;;10.80;7.17;;;;;;;-5.25;69.32;102519.49;1720155;82;21083;-74
2022/12/19 04:40:50;;;;;;;10.72;7.30;;;;;;;-5.23;69.29;102524.67;1720162;82;20961;-74
2022/12/19 04:43:18;;;;;;;10.95;6.53;;;;;;;-5.24;69.27;102525.52;1720303;81;21036;-74
2022/12/19 04:45:45;;;;;;;10.05;6.90;;;;;;;-5.25;69.29;102525.93;1717322;82;21039;-76
2022/12/19 04:48:11;;;;;;;10.30;6.78;;;;;;;-5.21;69.33;102525.17;1719453;82;21387;-76
2022/12/19 04:50:37;;;;;;;10.30;7.08;;;;;;;-5.20;69.32;102524.33;1720187;82;21403;-75
2022/12/19 04:53:05;;;;;;;11.15;6.70;;;;;;;-5.18;69.35;102535.95;1731002;82;22274;-76
2022/12/19 04:55:31;;;;;;;9.65;6.33;;;;;;;-5.17;69.40;102549.70;1691795;83;22229;-76
2022/12/19 04:57:59;;;;;;;10.20;6.92;;;;;;;-5.16;69.49;102546.28;1720027;82;21051;-73
2022/12/19 05:00:25;;;;;;;8.75;6.33;;;;;;;-5.15;69.44;102547.59;1720037;82;21020;-74
2022/12/19 05:02:52;;;;;;;9.33;6.25;;;;;;;-5.18;69.44;102552.70;1716707;82;21565;-74
2022/12/19 05:05:19;;;;;;;7.78;5.95;;;;;;;-5.19;69.43;102546.67;1713656;82;21427;-74
2022/12/19 05:07:45;;;;;;;11.33;8.03;;;;;;;-5.18;69.46;102539.81;1730556;82;22543;-74
2022/12/19 05:10:12;;;;;;;11.75;8.90;;;;;;;-5.16;69.40;102539.42;1723017;82;21390;-74
2022/12/19 05:12:38;;;;;;;14.33;11.08;;;;;;;-5.17;69.37;102538.97;1697752;82;21011;-74
2022/12/19 05:15:07;;;;;;;12.25;10.15;;;;;;;-5.20;69.43;102546.65;1719903;82;21028;-74
2022/12/19 05:17:34;;;;;;;9.28;7.47;;;;;;;-5.19;69.51;102548.38;1720057;82;21055;-74
2022/12/19 05:20:00;;;;;;;10.82;7.12;;;;;;;-5.16;69.52;102557.88;1715403;82;21933;-74
2022/12/19 05:22:27;;;;;;;12.37;9.85;;;;;;;-5.16;69.57;102551.44;1716677;82;20984;-74
2022/12/19 05:24:53;;;;;;;12.35;9.85;;;;;;;-5.13;69.49;102557.92;1723428;82;21082;-75
2022/12/19 05:27:20;;;;;;;12.20;8.58;;;;;;;-5.14;69.54;102557.48;1730411;82;20981;-74
2022/12/19 05:29:47;;;;;;;10.63;7.03;;;;;;;-5.17;69.50;102560.88;1719948;82;21553;-75
2022/12/19 05:32:13;;;;;;;9.68;6.67;;;;;;;-5.20;69.47;102564.27;1725939;82;21925;-74
2022/12/19 05:34:40;;;;;;;9.10;6.78;;;;;;;-5.24;69.39;102570.17;1726610;82;20873;-73
2022/12/19 05:37:06;;;;;;;9.23;6.65;;;;;;;-5.26;69.44;102566.70;1700064;82;21020;-75
2022/12/19 05:39:33;;;;;;;8.30;6.00;;;;;;;-5.28;69.47;102574.82;1706993;84;21369;-74
2022/12/19 05:42:00;;;;;;;10.23;5.42;;;;;;;-5.28;69.48;102575.24;1662708;85;21461;-74
2022/12/19 05:44:27;;;;;;;8.08;5.10;;;;;;;-5.31;69.54;102570.88;1699034;83;22617;-74
2022/12/19 05:46:53;;;;;;;10.95;6.78;;;;;;;-5.30;69.52;102583.36;1699067;84;21594;-74
2022/12/19 05:49:20;;;;;;;7.47;5.45;;;;;;;-5.31;69.48;102582.88;1699507;83;21449;-74
2022/12/19 05:51:47;;;;;;;7.60;5.25;;;;;;;-5.31;69.48;102591.90;1699262;83;21492;-75
2022/12/19 05:54:13;;;;;;;7.35;5.03;;;;;;;-5.32;69.40;102591.03;1688921;84;21376;-75
2022/12/19 05:56:40;;;;;;;7.78;5.33;;;;;;;-5.36;69.30;102607.69;1664939;84;22568;-73
2022/12/19 05:59:07;;;;;;;6.70;4.92;;;;;;;-5.41;69.21;102610.14;1694618;83;21549;-74
2022/12/19 06:01:34;;;;;;;7.55;4.92;;;;;;;-5.48;69.19;102610.45;1647393;86;21495;-75
2022/12/19 06:04:00;;;;;;;7.67;4.85;;;;;;;-5.51;69.17;102618.51;1698750;83;20991;-74
2022/12/19 06:06:27;;;;;;;6.72;5.12;;;;;;;-5.54;69.24;102624.47;1699357;83;21435;-75
2022/12/19 06:08:55;;;;;;;11.73;8.05;;;;;;;-5.52;69.30;102621.92;1699218;84;21845;-74
2022/12/19 06:11:21;;;;;;;8.35;5.78;;;;;;;-5.51;69.32;102626.23;1698158;84;20954;-74
2022/12/19 06:13:48;;;;;;;9.00;5.10;;;;;;;-5.48;69.38;102630.19;1699247;83;21076;-75
2022/12/19 06:16:17;;;;;;;9.28;6.33;;;;;;;-5.48;69.29;102638.78;1699318;83;21041;-74
2022/12/19 06:18:44;;;;;;;7.78;5.17;;;;;;;-5.50;69.27;102644.70;1699199;83;21446;-75
2022/12/19 06:21:14;;;;;;;8.63;5.47;;;;;;;-5.46;69.33;102652.97;1699040;83;22731;-75
2022/12/19 06:23:40;;;;;;;6.45;4.87;;;;;;;-5.43;69.43;102653.45;1699316;84;20953;-76
2022/12/19 06:26:09;;;;;;;8.80;5.83;;;;;;;-5.41;69.39;102664.64;1699221;83;20890;-75
2022/12/19 06:28:36;;;;;;;8.53;6.05;;;;;;;-5.41;69.35;102669.80;1683837;84;21012;-76
2022/12/19 06:31:04;;;;;;;10.15;5.72;;;;;;;-5.42;69.33;102677.08;1671264;86;20952;-76
2022/12/19 06:33:32;;;;;;;9.70;5.30;;;;;;;-5.41;69.40;102676.23;1696029;84;21910;-76
2022/12/19 06:36:05;;;;;;;8.28;5.10;;;;;;;-5.38;69.45;102678.91;1699315;84;20946;-76
2022/12/19 06:38:32;;;;;;;8.85;5.17;;;;;;;-5.37;69.46;102678.94;1699195;83;21425;-75
2022/12/19 06:43:44;;;;;;;36.58;21.15;;;;;;;-5.34;69.59;102673.84;1698896;83;21518;-76
2022/12/19 06:46:10;;;;;;;25.57;14.05;;;;;;;-5.32;69.70;102681.59;1699261;83;21918;-76
2022/12/19 06:48:37;;;;;;;14.63;7.97;;;;;;;-5.30;69.81;102675.67;1702276;82;21012;-75
2022/12/19 06:51:04;;;;;;;9.73;6.17;;;;;;;-5.27;69.94;102677.44;1699219;83;21059;-75
2022/12/19 06:53:30;;;;;;;10.60;5.75;;;;;;;-5.24;70.01;102670.63;1699551;83;20969;-75
2022/12/19 06:55:58;;;;;;;7.95;5.22;;;;;;;-5.20;70.12;102678.03;1699714;83;21037;-75
2022/12/19 06:58:24;;;;;;;11.00;5.50;;;;;;;-5.19;70.18;102684.50;1699824;83;22198;-76
2022/12/19 07:00:52;;;;;;;8.20;5.28;;;;;;;-5.14;70.23;102691.45;1699446;83;21128;-75
2022/12/19 07:03:26;;;;;;;7.97;5.33;;;;;;;-5.10;70.34;102689.41;1685133;84;20998;-76
2022/12/19 07:05:52;;;;;;;6.80;4.65;;;;;;;-5.05;70.46;102680.06;1699338;83;21092;-76
2022/12/19 07:08:19;;;;;;;7.00;4.40;;;;;;;-5.01;70.43;102689.61;1699438;84;20966;-76
2022/12/19 07:10:45;;;;;;;6.85;4.53;;;;;;;-4.98;70.52;102692.25;1699103;83;21885;-76
2022/12/19 07:13:13;;;;;;;7.17;4.65;;;;;;;-4.96;70.53;102690.56;1699091;84;21039;-76
2022/12/19 07:15:39;;;;;;;9.63;6.65;;;;;;;-4.91;70.58;102681.23;1699279;83;21440;-76
2022/12/19 07:18:07;;;;;;;13.88;9.75;;;;;;;-4.85;70.69;102689.50;1678994;83;21045;-76
2022/12/19 07:20:35;;;;;;;12.35;7.37;;;;;;;-4.81;70.64;102678.02;1672903;83;21008;-77
2022/12/19 07:23:01;;;;;;;9.68;6.40;;;;;;;-4.80;70.59;102678.46;1698982;83;22340;-74
2022/12/19 07:25:28;;;;;;;14.40;6.70;;;;;;;-4.78;70.67;102676.78;1699294;84;20948;-74
2022/12/19 07:27:55;;;;;;;10.48;6.35;;;;;;;-4.71;70.87;102675.20;1699222;83;21000;-74
2022/12/19 07:30:21;;;;;;;10.50;7.20;;;;;;;-4.64;70.94;102672.75;1652023;84;21009;-74
2022/12/19 07:32:48;;;;;;;7.20;4.92;;;;;;;-4.54;71.03;102676.80;1698789;83;20998;-74
2022/12/19 07:35:15;;;;;;;37.15;23.18;;;;;;;-4.46;71.03;102691.59;1699234;83;21937;-75
2022/12/19 07:37:42;;;;;;;18.67;11.83;;;;;;;-4.40;71.05;102687.85;1718132;82;21432;-76
2022/12/19 07:40:11;;;;;;;10.98;7.60;;;;;;;-4.34;70.97;102681.95;1714840;83;21477;-77
2022/12/19 07:42:38;;;;;;;63.73;30.37;;;;;;;-4.30;70.82;102686.73;1709962;83;22125;-76
2022/12/19 07:45:06;;;;;;;75.85;42.88;;;;;;;-4.30;70.70;102688.03;1714482;83;21100;-77
2022/12/19 07:47:34;;;;;;;67.58;39.33;;;;;;;-4.29;70.54;102687.19;1714477;83;21507;-76
2022/12/19 07:50:01;;;;;;;56.65;35.75;;;;;;;-4.36;70.48;102685.77;1714029;83;21408;-76
2022/12/19 07:52:28;;;;;;;24.27;13.43;;;;;;;-4.35;70.48;102677.60;1706917;83;20989;-76
2022/12/19 07:54:54;;;;;;;18.82;12.65;;;;;;;-4.30;70.63;102682.87;1686150;85;21051;-76
2022/12/19 07:57:21;;;;;;;11.57;7.42;;;;;;;-4.23;70.67;102697.63;1706897;82;21001;-76
2022/12/19 07:59:47;;;;;;;11.15;7.62;;;;;;;-4.16;70.66;102692.59;1713213;83;21875;-76
2022/12/19 08:02:14;;;;;;;10.28;6.95;;;;;;;-4.14;70.57;102694.80;1714401;82;20952;-75
2022/12/19 08:04:41;;;;;;;13.13;7.72;;;;;;;-4.10;70.52;102706.03;1714628;82;21000;-75
2022/12/19 08:07:07;;;;;;;9.03;5.92;;;;;;;-4.07;70.57;102715.98;1714657;82;21065;-75
2022/12/19 08:09:33;;;;;;;15.53;10.88;;;;;;;-4.02;70.54;102713.50;1703067;83;21073;-75
2022/12/19 08:12:00;;;;;;;20.27;13.43;;;;;;;-3.98;70.45;102726.03;1689199;82;21724;-76
2022/12/19 08:14:27;;;;;;;27.93;20.88;;;;;;;-4.01;70.39;102720.82;1714534;82;21001;-74
2022/12/19 08:16:53;;;;;;;18.92;13.98;;;;;;;-3.98;70.48;102735.06;1712875;83;20973;-74
2022/12/19 08:19:20;;;;;;;16.87;12.70;;;;;;;-3.90;70.54;102739.95;1714385;83;20952;-74
2022/12/19 08:21:46;;;;;;;12.10;8.98;;;;;;;-3.85;70.54;102737.05;1714561;82;21025;-76
2022/12/19 08:24:13;;;;;;;10.78;8.13;;;;;;;-3.82;70.48;102734.51;1714127;83;21784;-76
2022/12/19 08:26:40;;;;;;;11.53;7.37;;;;;;;-3.82;70.38;102723.75;1709731;83;21031;-77
2022/12/19 08:29:06;;;;;;;9.40;6.78;;;;;;;-3.77;70.33;102727.69;1691821;82;22186;-77
2022/12/19 08:31:33;;;;;;;11.15;7.17;;;;;;;-3.76;70.37;102726.88;1703752;82;21020;-76
2022/12/19 08:33:59;;;;;;;9.80;7.00;;;;;;;-3.73;70.22;102733.80;1713984;83;20961;-75
2022/12/19 08:36:26;;;;;;;11.33;7.25;;;;;;;-3.71;70.31;102724.36;1680710;85;22470;-76
2022/12/19 08:38:53;;;;;;;14.78;9.60;;;;;;;-3.66;70.31;102723.61;1709250;83;20967;-77
2022/12/19 08:41:19;;;;;;;16.40;10.50;;;;;;;-3.63;70.27;102734.41;1661860;86;20968;-76
2022/12/19 08:43:50;;;;;;;15.25;10.13;;;;;;;-3.58;70.30;102732.33;1700842;83;21074;-77
2022/12/19 08:46:18;;;;;;;132.12;14.00;;;;;;;-3.53;70.20;102739.74;1681050;84;21067;-77
2022/12/19 08:48:44;;;;;;;23.10;7.85;;;;;;;-3.48;70.22;102740.67;1705248;82;22312;-76
2022/12/19 08:51:12;;;;;;;11.57;6.45;;;;;;;-3.42;70.19;102736.46;1709305;84;20929;-75
2022/12/19 08:53:40;;;;;;;11.88;7.60;;;;;;;-3.37;70.12;102737.42;1709136;82;21013;-76
2022/12/19 08:56:15;;;;;;;10.32;7.20;;;;;;;-3.35;70.03;102739.17;1712284;83;21499;-77
2022/12/19 08:58:42;;;;;;;14.03;6.62;;;;;;;-3.33;69.91;102737.48;1685328;83;21006;-75
2022/12/19 09:01:14;;;;;;;26.90;10.90;;;;;;;-3.30;69.96;102739.23;1675552;85;21739;-76
2022/12/19 09:03:40;;;;;;;35.55;23.60;;;;;;;-3.26;69.92;102736.73;1701093;83;20966;-77
2022/12/19 09:06:09;;;;;;;18.52;13.93;;;;;;;-3.18;69.87;102739.44;1712748;83;21045;-74
2022/12/19 09:08:35;;;;;;;14.55;10.13;;;;;;;-3.12;69.77;102740.80;1682914;84;21445;-76
2022/12/19 09:11:14;;;;;;;12.58;8.13;;;;;;;-3.12;69.55;102735.63;1713953;82;21009;-76
2022/12/19 09:13:41;;;;;;;20.17;6.10;;;;;;;-3.12;69.52;102730.89;1679968;84;21783;-76
2022/12/19 09:16:19;;;;;;;9.48;5.35;;;;;;;-3.07;69.58;102740.89;1680620;84;21005;-76
2022/12/19 09:18:47;;;;;;;8.50;4.92;;;;;;;-3.01;69.63;102738.37;1690375;83;21137;-77
2022/12/19 09:21:14;;;;;;;15.48;5.15;;;;;;;-2.91;69.54;102740.23;1684402;85;21321;-76
2022/12/19 09:23:41;;;;;;;13.72;4.97;;;;;;;-2.85;69.45;102732.58;1713097;83;21016;-77
2022/12/19 09:26:10;;;;;;;8.70;4.40;;;;;;;-2.76;69.49;102733.12;1684791;84;21883;-76
2022/12/19 09:28:38;;;;;;;9.35;4.55;;;;;;;-2.71;69.22;102723.70;1710016;83;21012;-76
2022/12/19 09:31:07;;;;;;;19.32;4.60;;;;;;;-2.70;69.10;102717.67;1708242;82;21048;-76
2022/12/19 09:33:34;;;;;;;18.05;5.10;;;;;;;-2.68;69.16;102710.39;1689862;82;21072;-78
2022/12/19 09:36:01;;;;;;;6.05;4.42;;;;;;;-2.62;69.11;102709.59;1695296;83;21428;-77
2022/12/19 09:38:28;;;;;;;12.07;6.42;;;;;;;-2.54;69.21;102704.08;1697368;83;22448;-75
2022/12/19 09:41:20;;;;;;;18.48;10.58;;;;;;;-2.47;69.23;102721.42;1699038;83;21025;-74
2022/12/19 09:44:24;;;;;;;10.80;6.58;;;;;;;-2.42;69.10;102726.21;1699164;83;21000;-76
2022/12/19 09:46:58;;;;;;;14.20;4.28;;;;;;;-2.37;69.11;102723.70;1699844;83;21420;-76
2022/12/19 09:49:37;;;;;;;16.93;4.60;;;;;;;-2.33;68.97;102726.75;1676320;82;21084;-76
2022/12/19 09:52:24;;;;;;;5.37;3.37;;;;;;;-2.30;68.94;102726.81;1688757;83;21831;-78
2022/12/19 09:55:23;;;;;;;5.28;3.50;;;;;;;-2.25;68.91;102731.59;1699507;84;20949;-77
2022/12/19 09:57:58;;;;;;;13.65;8.88;;;;;;;-2.23;68.69;102729.88;1698746;83;20950;-77
2022/12/19 10:00:29;;;;;;;10.88;7.10;;;;;;;-2.24;68.54;102732.45;1698710;83;21085;-79
2022/12/19 10:03:01;;;;;;;17.42;5.60;;;;;;;-2.20;68.60;102727.77;1696584;83;21500;-78
2022/12/19 10:05:49;;;;;;;12.93;5.60;;;;;;;-2.17;68.55;102727.38;1699648;83;21771;-75
2022/12/19 10:08:19;;;;;;;16.05;7.10;;;;;;;-2.15;68.40;102722.20;1696114;83;21021;-77
2022/12/19 10:11:12;;;;;;;9.15;6.25;;;;;;;-2.12;68.39;102714.49;1687114;83;21070;-76
2022/12/19 10:14:13;;;;;;;9.48;5.65;;;;;;;-2.12;68.23;102719.67;1698351;83;21006;-73
2022/12/19 10:17:34;;;;;;;8.68;6.55;;;;;;;-2.08;68.33;102721.42;1677505;84;20964;-74
2022/12/19 10:20:27;;;;;;;9.98;5.60;;;;;;;-2.05;68.35;102718.86;1684339;83;22787;-78
2022/12/19 10:23:06;;;;;;;7.20;5.37;;;;;;;-1.97;68.45;102722.83;1699278;83;21065;-76
2022/12/19 10:25:51;;;;;;;7.72;5.28;;;;;;;-1.93;68.32;102719.00;1693402;84;21503;-75
2022/12/19 10:28:41;;;;;;;7.85;4.10;;;;;;;-1.88;68.40;102721.62;1693244;84;21046;-74
2022/12/19 10:31:22;;;;;;;24.57;17.10;;;;;;;-1.82;68.44;102717.38;1698963;83;20981;-76
2022/12/19 10:34:19;;;;;;;21.87;13.25;;;;;;;-1.77;68.20;102718.27;1673695;83;21838;-76
2022/12/19 10:36:53;;;;;;;13.60;9.85;;;;;;;-1.75;68.21;102717.84;1698240;83;21000;-74
2022/12/19 10:39:44;;;;;;;18.70;9.05;;;;;;;-1.71;68.21;102723.08;1690978;83;21403;-77
2022/12/19 10:42:36;;;;;;;18.40;8.55;;;;;;;-1.71;68.21;102710.12;1688052;82;21018;-75
2022/12/19 10:45:13;;;;;;;16.60;8.18;;;;;;;-1.68;68.31;102707.55;1709790;82;20964;-76
2022/12/19 10:47:41;;;;;;;18.50;6.72;;;;;;;-1.62;68.45;102710.20;1693058;82;21816;-76
2022/12/19 10:50:13;;;;;;;17.48;5.95;;;;;;;-1.56;68.58;102706.34;1692963;83;21097;-78
2022/12/19 10:52:51;;;;;;;34.90;9.15;;;;;;;-1.51;68.49;102700.78;1714266;82;21483;-74
2022/12/19 10:55:49;;;;;;;54.80;31.62;;;;;;;-1.47;68.49;102701.23;1713378;83;20984;-74
2022/12/19 10:58:21;;;;;;;34.33;20.10;;;;;;;-1.43;68.41;102705.61;1693298;82;21013;-74
2022/12/19 11:01:26;;;;;;;17.70;11.05;;;;;;;-1.43;68.32;102699.12;1690713;82;21905;-73
2022/12/19 11:04:26;;;;;;;17.17;7.60;;;;;;;-1.40;68.36;102698.27;1740332;82;20958;-74
2022/12/19 11:07:05;;;;;;;14.03;5.45;;;;;;;-1.37;68.44;102704.33;1699533;83;20990;-72
2022/12/19 11:09:42;;;;;;;13.13;5.22;;;;;;;-1.32;68.40;102706.55;1714340;82;21020;-75
2022/12/19 11:12:17;;;;;;;12.53;4.78;;;;;;;-1.28;68.43;102700.52;1714050;82;20995;-74
2022/12/19 11:14:56;;;;;;;13.35;4.28;;;;;;;-1.26;68.37;102705.27;1710266;83;21836;-72
2022/12/19 11:17:27;;;;;;;13.38;4.37;;;;;;;-1.22;68.34;102707.05;1665882;83;20966;-74
2022/12/19 11:19:53;;;;;;;10.70;4.10;;;;;;;-1.18;68.33;102698.41;1712810;82;20961;-74
2022/12/19 11:22:24;;;;;;;7.25;4.10;;;;;;;-1.12;68.29;102691.11;1677020;83;20976;-75
2022/12/19 11:24:52;;;;;;;7.33;4.47;;;;;;;-1.08;68.24;102701.93;1704822;82;21362;-75
2022/12/19 11:27:42;;;;;;;8.18;4.22;;;;;;;-1.07;68.18;102693.72;1714578;82;22453;-75
2022/12/19 11:30:22;;;;;;;9.10;4.22;;;;;;;-1.04;68.18;102693.33;1654859;84;21046;-75
2022/12/19 11:32:53;;;;;;;16.23;9.40;;;;;;;-1.00;68.18;102696.80;1706870;82;21479;-75
2022/12/19 11:35:24;;;;;;;8.68;5.40;;;;;;;-0.95;68.19;102698.56;1659894;85;20986;-76
2022/12/19 11:37:59;;;;;;;18.52;8.23;;;;;;;-0.85;68.23;102712.45;1705076;82;20969;-73
2022/12/19 11:40:43;;;;;;;12.60;5.70;;;;;;;-0.73;68.31;102702.13;1689304;83;21867;-75
2022/12/19 11:43:27;;;;;;;8.53;6.03;;;;;;;-0.52;68.62;102705.23;1679055;83;20966;-74
2022/12/19 11:46:02;;;;;;;8.40;5.67;;;;;;;-0.21;68.86;102702.73;1684797;83;21036;-74
2022/12/19 11:48:55;;;;;;;13.75;5.47;;;;;;;0.07;68.49;102710.14;1683259;83;21042;-74